UKDR/KWG METAR and TAF weather

Enter ICAO airport designator
Station Type Date Time Source
UKDR METAR 2019/10/23 20:00 UTC NOAA

UKDR 232000Z 00000MPS 1300 1200S R36/P2000N BR OVC002 11/10 Q1022 R36/19//60 BECMG 0200 FG VV001


Station Type Date Time Source
UKDR Decoded METAR 2019/10/23 20:00 UTC NOAA

Krivyy Rih / Dnipropetrovs'k, Ukraine (UKDR) 48-03N 033-13-12E
Oct 23, 2019 - 04:00 PM EDT / 2019.10.23 2000 UTC
Wind: Calm:0
Visibility: less than 1 mile:0
Sky conditions: overcast
Weather: mist
Temperature: 51 F (11 C)
Dew Point: 50 F (10 C)
Relative Humidity: 93%
Pressure (altimeter): 30.18 in. Hg (1022 hPa)
ob: UKDR 232000Z 00000MPS 1300 1200S R36/P2000N BR OVC002 11/10 Q1022 R36/19//60 BECMG 0200 FG VV001
cycle: 20

Station Type Date Time Source
UKDR TAF 2019/10/23 18:00 UTC NOAA

TAF UKDR 231707Z 2318/2418 VRB01MPS 0200 FG VV001
BECMG 2408/2410 2500 BR BKN005

Example: see airport list